createdAt,value
2018-05-08T00:00:18.637Z,1.7
2018-05-08T00:02:19.407Z,1.7
2018-05-08T00:04:19.209Z,1.5
2018-05-08T00:06:18.728Z,1.6
2018-05-08T00:08:18.506Z,1.7
2018-05-08T00:10:18.713Z,2.1
2018-05-08T00:12:19.471Z,1.5
2018-05-08T00:14:19.227Z,1.5
2018-05-08T00:16:19.324Z,1.2
2018-05-08T00:18:19.160Z,1.6
2018-05-08T00:20:18.923Z,1.7
2018-05-08T00:22:18.679Z,1.7
2018-05-08T00:24:19.433Z,1.8
2018-05-08T00:26:18.491Z,1.8
2018-05-08T00:28:19.251Z,1.7
2018-05-08T00:30:19.205Z,1.3
2018-05-08T00:32:18.964Z,1.2
2018-05-08T00:34:18.717Z,1.6
2018-05-08T00:36:18.736Z,1.4
2018-05-08T00:38:18.524Z,1.6
2018-05-08T00:40:18.820Z,1.7
2018-05-08T00:42:18.605Z,1.4
2018-05-08T00:44:19.381Z,1.5
2018-05-08T00:46:19.442Z,1.6
2018-05-08T00:48:19.194Z,1.8
2018-05-08T00:50:18.985Z,1.5
2018-05-08T00:52:18.744Z,1
2018-05-08T00:54:18.505Z,1
2018-05-08T00:56:18.530Z,1.7
2018-05-08T00:58:19.319Z,1.4
2018-05-08T01:00:19.126Z,2.2
2018-05-08T01:02:18.887Z,1.4
2018-05-08T01:04:18.644Z,1.6
2018-05-08T01:06:19.281Z,1.3
2018-05-08T01:08:19.038Z,1.8
2018-05-08T01:10:19.247Z,2.1
2018-05-08T01:12:19.052Z,1.3
2018-05-08T01:14:18.816Z,1.4
2018-05-08T01:16:19.308Z,1.3
2018-05-08T01:18:19.163Z,1.4
2018-05-08T01:20:19.022Z,1.7
2018-05-08T01:22:18.788Z,1.4
2018-05-08T01:24:18.578Z,1.6
2018-05-08T01:26:19.144Z,1.4
2018-05-08T01:28:18.896Z,1.2
2018-05-08T01:30:18.681Z,2.1
2018-05-08T01:32:19.460Z,1
2018-05-08T01:34:19.237Z,1.6
2018-05-08T01:36:19.311Z,1.9
2018-05-08T01:38:19.112Z,1.6
2018-05-08T01:40:19.331Z,1.8
2018-05-08T01:42:19.106Z,1.4
2018-05-08T01:44:18.861Z,2
2018-05-08T01:46:19.345Z,1.5
2018-05-08T01:48:19.109Z,2
2018-05-08T01:50:18.875Z,1.5
2018-05-08T01:52:18.648Z,1.8
2018-05-08T01:54:19.402Z,1.1
2018-05-08T01:56:18.880Z,1.7
2018-05-08T01:58:18.633Z,1.9
2018-05-08T02:00:19.394Z,2.3
2018-05-08T02:02:19.152Z,1.5
2018-05-08T02:04:18.935Z,1.3
2018-05-08T02:06:19.202Z,1.4
2018-05-08T02:08:18.981Z,1.9
2018-05-08T02:10:19.282Z,1.7
2018-05-08T02:12:19.040Z,1.6
2018-05-08T02:14:18.798Z,1.5
2018-05-08T02:16:19.240Z,1.5
2018-05-08T02:18:19.094Z,1.7
2018-05-08T02:20:18.922Z,1.7
2018-05-08T02:22:18.719Z,1.8
2018-05-08T02:24:18.491Z,1.4
2018-05-08T02:26:18.948Z,1.8
2018-05-08T02:28:18.705Z,2
2018-05-08T02:30:19.471Z,1.7
2018-05-08T02:32:19.236Z,2
2018-05-08T02:34:19.033Z,1.6
2018-05-08T02:36:18.522Z,2.2
2018-05-08T02:38:19.277Z,2.2
2018-05-08T02:40:19.485Z,1.9
2018-05-08T02:42:19.247Z,1.5
2018-05-08T02:44:19.019Z,1.9
2018-05-08T02:46:19.045Z,1.9
2018-05-08T02:48:18.797Z,2
2018-05-08T02:50:18.572Z,1.6
2018-05-08T02:52:19.358Z,1.4
2018-05-08T02:54:19.114Z,1.1
2018-05-08T02:56:19.105Z,2.1
2018-05-08T02:58:18.876Z,1.7
2018-05-08T03:00:18.674Z,2
2018-05-08T03:02:19.408Z,1.6
2018-05-08T03:04:19.146Z,1.5
2018-05-08T03:06:18.584Z,1.3
2018-05-08T03:08:19.345Z,1.9
2018-05-08T03:10:18.599Z,2.2
2018-05-08T03:12:19.375Z,1.9
2018-05-08T03:14:19.126Z,1.5
2018-05-08T03:16:19.102Z,1.8
2018-05-08T03:18:18.924Z,1.9
2018-05-08T03:20:18.726Z,1.8
2018-05-08T03:22:19.561Z,1.7
2018-05-08T03:24:19.381Z,2.1
2018-05-08T03:26:18.868Z,2
2018-05-08T03:28:18.612Z,2
2018-05-08T03:30:19.361Z,2.1
2018-05-08T03:32:19.129Z,2.3
2018-05-08T03:34:18.897Z,1.8
2018-05-08T03:36:19.369Z,1.9
2018-05-08T03:38:19.129Z,2.1
2018-05-08T03:40:19.308Z,2.2
2018-05-08T03:42:19.079Z,2.5
2018-05-08T03:44:18.818Z,1.7
2018-05-08T03:46:19.258Z,1.9
2018-05-08T03:48:19.026Z,2.1
2018-05-08T03:50:18.820Z,2.3
2018-05-08T03:52:18.665Z,2.3
2018-05-08T03:54:19.432Z,2
2018-05-08T03:56:18.918Z,1.8
2018-05-08T03:58:18.671Z,2.4
2018-05-08T04:00:19.450Z,2.2
2018-05-08T04:02:19.209Z,2
2018-05-08T04:04:18.960Z,1.9
2018-05-08T04:06:19.440Z,2
2018-05-08T04:08:19.267Z,2.2
2018-05-08T04:10:18.609Z,2.3
2018-05-08T04:12:19.385Z,2.6
2018-05-08T04:14:19.176Z,2.7
2018-05-08T04:16:19.217Z,3.2
2018-05-08T04:18:19.065Z,2.3
2018-05-08T04:20:18.840Z,2.3
2018-05-08T04:22:18.599Z,2
2018-05-08T04:24:19.363Z,1.8
2018-05-08T04:26:19.437Z,2
2018-05-08T04:28:19.212Z,2.6
2018-05-08T04:30:19.010Z,2.3
2018-05-08T04:32:18.775Z,2.3
2018-05-08T04:34:18.551Z,2.4
2018-05-08T04:36:19.049Z,2.6
2018-05-08T04:38:18.797Z,2.8
2018-05-08T04:40:19.020Z,2.8
2018-05-08T04:42:18.799Z,3
2018-05-08T04:44:18.602Z,3
2018-05-08T04:46:18.603Z,2.5
2018-05-08T04:48:19.332Z,2.7
2018-05-08T04:50:19.104Z,2.9
2018-05-08T04:52:18.861Z,2.2
2018-05-08T04:54:18.612Z,3.4
2018-05-08T04:56:19.082Z,3.5
2018-05-08T04:58:18.827Z,2
2018-05-08T05:00:18.614Z,2.6
2018-05-08T05:02:19.369Z,3.2
2018-05-08T05:04:19.111Z,2.5
2018-05-08T05:06:18.601Z,2.2
2018-05-08T05:08:19.364Z,2.5
2018-05-08T05:10:18.603Z,2.1
2018-05-08T05:12:19.360Z,1.9
2018-05-08T05:14:19.131Z,2.8
2018-05-08T05:16:19.136Z,2.4
2018-05-08T05:18:18.955Z,2.3
2018-05-08T05:20:18.728Z,2.5
2018-05-08T05:22:18.488Z,2.9
2018-05-08T05:24:19.236Z,1.9
2018-05-08T05:26:18.835Z,1.8
2018-05-08T05:28:18.576Z,2.2
2018-05-08T05:30:19.349Z,1.6
2018-05-08T05:32:19.123Z,1.8
2018-05-08T05:34:18.893Z,1.7
2018-05-08T05:36:18.916Z,2
2018-05-08T05:38:18.684Z,2.1
2018-05-08T05:40:18.905Z,2
2018-05-08T05:42:18.672Z,2.3
2018-05-08T05:44:19.426Z,2.3
2018-05-08T05:46:18.974Z,2.4
2018-05-08T05:48:18.745Z,1.9
2018-05-08T05:50:18.539Z,2.3
2018-05-08T05:52:19.318Z,2.2
2018-05-08T05:54:19.101Z,2.2
2018-05-08T05:56:18.584Z,2
2018-05-08T05:58:19.333Z,2.7
2018-05-08T06:00:19.134Z,3
2018-05-08T06:02:18.889Z,2.3
2018-05-08T06:04:18.659Z,2.8
2018-05-08T06:06:19.213Z,1.9
2018-05-08T06:08:19.028Z,2.4
2018-05-08T06:10:19.250Z,2.3
2018-05-08T06:12:19.008Z,2.3
2018-05-08T06:14:18.767Z,2.4
2018-05-08T06:16:19.272Z,2.8
2018-05-08T06:18:19.126Z,2.1
2018-05-08T06:20:18.899Z,2.8
2018-05-08T06:22:18.763Z,2.5
2018-05-08T06:24:18.529Z,2.6
2018-05-08T06:26:18.575Z,2.4
2018-05-08T06:28:19.327Z,3.2
2018-05-08T06:30:19.172Z,3.3
2018-05-08T06:32:18.961Z,3.1
2018-05-08T06:34:18.751Z,2.4
2018-05-08T06:36:19.282Z,2.5
2018-05-08T06:38:19.049Z,2.7
2018-05-08T06:40:19.265Z,2.4
2018-05-08T06:42:19.065Z,2.6
2018-05-08T06:44:18.902Z,2.1
2018-05-08T06:46:18.585Z,2.4
2018-05-08T06:48:19.351Z,2.1
2018-05-08T06:50:19.149Z,2.3
2018-05-08T06:52:18.911Z,2.1
2018-05-08T06:54:18.673Z,2.7
2018-05-08T06:56:18.733Z,2.1
2018-05-08T06:58:18.525Z,2.6
2018-05-08T07:00:19.316Z,2.5
2018-05-08T07:02:19.078Z,2
2018-05-08T07:04:18.868Z,2.1
2018-05-08T07:06:19.441Z,2.1
2018-05-08T07:08:19.228Z,1.9
2018-05-08T07:10:19.488Z,2.2
2018-05-08T07:12:19.244Z,2.1
2018-05-08T07:14:19.026Z,2.2
2018-05-08T07:16:18.526Z,2.4
2018-05-08T07:18:19.372Z,2.3
2018-05-08T07:20:19.179Z,3.3
2018-05-08T07:22:18.930Z,3.3
2018-05-08T07:24:18.729Z,2.5
2018-05-08T07:26:19.259Z,2.9
2018-05-08T07:28:19.053Z,1.8
2018-05-08T07:30:18.924Z,2.8
2018-05-08T07:32:18.719Z,1.8
2018-05-08T07:34:19.497Z,2
2018-05-08T07:36:18.981Z,1.7
2018-05-08T07:38:18.788Z,1.6
2018-05-08T07:40:18.241Z,1.7
2018-05-08T07:42:19.022Z,1.7
2018-05-08T07:44:18.821Z,2
2018-05-08T07:46:19.308Z,2
2018-05-08T07:48:19.062Z,1.3
2018-05-08T07:50:18.860Z,1.9
2018-05-08T07:52:18.606Z,1.5
2018-05-08T07:54:19.388Z,1.4
2018-05-08T07:56:17.912Z,1.8
2018-05-08T07:58:17.710Z,1.1
2018-05-08T08:00:18.550Z,1
2018-05-08T08:02:19.357Z,1.2
2018-05-08T08:04:19.130Z,1.2
2018-05-08T08:06:18.622Z,1.8
2018-05-08T08:08:19.421Z,1.4
2018-05-08T08:10:18.753Z,1.1
2018-05-08T08:12:17.646Z,0.9
2018-05-08T08:14:19.454Z,1.6
2018-05-08T08:16:18.948Z,1
2018-05-08T08:18:18.793Z,1.3
2018-05-08T08:20:18.586Z,0.9
2018-05-08T08:22:19.372Z,0.6
2018-05-08T08:24:18.161Z,1
2018-05-08T08:26:18.672Z,0.9
2018-05-08T08:28:18.434Z,0.7
2018-05-08T08:30:18.227Z,1
2018-05-08T08:32:19.031Z,0.8
2018-05-08T08:34:17.831Z,1
2018-05-08T08:36:18.445Z,1.3
2018-05-08T08:38:19.244Z,0.7
2018-05-08T08:40:19.628Z,1.3
2018-05-08T08:42:18.412Z,1.2
2018-05-08T08:44:18.198Z,0.9
2018-05-08T08:46:19.368Z,0.9
2018-05-08T08:48:19.134Z,0.6
2018-05-08T08:50:18.943Z,0.5
2018-05-08T08:52:17.804Z,0.7
2018-05-08T08:54:17.690Z,0.7
2018-05-08T08:56:17.744Z,0.7
2018-05-08T08:58:17.541Z,0.5
2018-05-08T09:00:18.328Z,0.6
2018-05-08T09:02:18.104Z,0.7
2018-05-08T09:04:17.891Z,0.6
2018-05-08T09:06:17.925Z,0.4
2018-05-08T09:08:17.717Z,0.5
2018-05-08T09:10:17.966Z,0.4
2018-05-08T09:12:17.753Z,0.6
2018-05-08T09:14:17.548Z,0.8
2018-05-08T09:16:18.052Z,0.8
2018-05-08T09:18:17.901Z,1
2018-05-08T09:20:17.706Z,0.5
2018-05-08T09:22:18.525Z,0.5
2018-05-08T09:24:18.317Z,0.5
2018-05-08T09:26:17.909Z,0.7
2018-05-08T09:28:17.693Z,0.5
2018-05-08T09:30:18.497Z,0.5
2018-05-08T09:32:18.282Z,0.5
2018-05-08T09:34:18.118Z,0.6
2018-05-08T09:36:17.625Z,0.6
2018-05-08T09:38:18.392Z,0.7
2018-05-08T09:40:17.622Z,0.5
2018-05-08T09:42:18.410Z,0.3
2018-05-08T09:44:18.172Z,0.8
2018-05-08T09:46:17.670Z,0.7
2018-05-08T09:48:18.473Z,0.5
2018-05-08T09:50:18.286Z,0.8
2018-05-08T09:52:18.088Z,0.5
2018-05-08T09:54:17.926Z,0.6
2018-05-08T09:56:17.601Z,0.5
2018-05-08T09:58:18.379Z,0.4
2018-05-08T10:00:18.159Z,0.8
2018-05-08T10:02:17.951Z,0.5
2018-05-08T10:04:17.767Z,0.8
2018-05-08T10:06:17.822Z,0.7
2018-05-08T10:08:17.600Z,1
2018-05-08T10:10:17.871Z,0.5
2018-05-08T10:12:17.669Z,0.7
2018-05-08T10:14:18.462Z,0.6
2018-05-08T10:16:17.970Z,0.6
2018-05-08T10:18:17.851Z,0.5
2018-05-08T10:20:17.684Z,0.5
2018-05-08T10:22:18.483Z,0.6
2018-05-08T10:24:18.235Z,0.4
2018-05-08T10:26:17.767Z,0.8
2018-05-08T10:28:17.542Z,0.5
2018-05-08T10:30:18.350Z,0.5
2018-05-08T10:32:18.137Z,0.8
2018-05-08T10:34:17.958Z,0.7
2018-05-08T10:36:18.013Z,0.5
2018-05-08T10:38:17.821Z,0.7
2018-05-08T10:40:18.079Z,0.6
2018-05-08T10:42:17.876Z,0.6
2018-05-08T10:44:17.678Z,0.8
2018-05-08T10:46:17.746Z,0.5
2018-05-08T10:48:17.544Z,0.4
2018-05-08T10:50:18.368Z,0.6
2018-05-08T10:52:18.170Z,0.6
2018-05-08T10:54:17.960Z,0.5
2018-05-08T10:56:18.015Z,0.3
2018-05-08T10:58:17.810Z,0.5
2018-05-08T11:00:17.727Z,1
2018-05-08T11:02:18.537Z,0.3
2018-05-08T11:04:18.312Z,0.7
2018-05-08T11:06:17.855Z,0.5
2018-05-08T11:08:17.644Z,0.4
2018-05-08T11:10:18.102Z,0.6
2018-05-08T11:12:17.899Z,0.5
2018-05-08T11:14:17.722Z,0.4
2018-05-08T11:16:18.326Z,0.7
2018-05-08T11:18:18.175Z,0.7
2018-05-08T11:20:17.984Z,0.3
2018-05-08T11:22:17.797Z,0.6
2018-05-08T11:24:17.603Z,0.4
2018-05-08T11:26:18.094Z,0.3
2018-05-08T11:28:17.880Z,0.6
2018-05-08T11:30:17.720Z,0.3
2018-05-08T11:32:18.509Z,0.7
2018-05-08T11:34:18.284Z,0.4
2018-05-08T11:36:17.855Z,0.8
2018-05-08T11:38:17.670Z,0.4
2018-05-08T11:40:17.906Z,0.7
2018-05-08T11:42:17.698Z,0.6
2018-05-08T11:44:18.489Z,0.4
2018-05-08T11:46:18.110Z,0.4
2018-05-08T11:48:17.899Z,0.3
2018-05-08T11:50:17.706Z,0.3
2018-05-08T11:52:18.503Z,0.6
2018-05-08T11:54:18.321Z,0.9
2018-05-08T11:56:17.824Z,0.8
2018-05-08T11:58:17.626Z,0.3
2018-05-08T12:00:18.464Z,0.4
2018-05-08T12:02:18.271Z,0.5
2018-05-08T12:04:18.089Z,0.5
2018-05-08T12:06:18.135Z,0.4
2018-05-08T12:08:17.932Z,0.5
2018-05-08T12:10:18.159Z,0.4
2018-05-08T12:12:17.955Z,0.4
2018-05-08T12:14:17.767Z,0.7
2018-05-08T12:16:18.276Z,1.1
2018-05-08T12:18:18.163Z,0.6
2018-05-08T12:20:17.981Z,0.7
2018-05-08T12:22:17.797Z,0.8
2018-05-08T12:24:17.602Z,0.5
2018-05-08T12:26:17.651Z,0.5
2018-05-08T12:28:18.477Z,0.8
2018-05-08T12:30:18.315Z,1
2018-05-08T12:32:18.155Z,0.8
2018-05-08T12:34:17.946Z,0.8
2018-05-08T12:36:18.593Z,0.5
2018-05-08T12:38:17.565Z,0.5
2018-05-08T12:40:17.853Z,0.6
2018-05-08T12:42:17.678Z,0.6
2018-05-08T12:44:18.468Z,0.5
2018-05-08T12:46:17.565Z,0.6
2018-05-08T12:48:18.354Z,0.6
2018-05-08T12:50:18.179Z,0.7
2018-05-08T12:52:18.080Z,0.3
2018-05-08T12:54:17.919Z,1.1
2018-05-08T12:56:18.463Z,0.4
2018-05-08T12:58:18.287Z,0.6
2018-05-08T13:00:18.102Z,0.7
2018-05-08T13:02:17.908Z,0.8
2018-05-08T13:04:17.723Z,0.5
2018-05-08T13:06:18.225Z,0.5
2018-05-08T13:08:18.024Z,0.5
2018-05-08T13:10:18.473Z,0.6
2018-05-08T13:12:18.304Z,0.5
2018-05-08T13:14:18.173Z,0.5
2018-05-08T13:16:17.738Z,0.3
2018-05-08T13:18:17.631Z,0.6
2018-05-08T13:20:18.449Z,0.5
2018-05-08T13:22:18.233Z,0.7
2018-05-08T13:24:18.105Z,0.6
2018-05-08T13:26:18.344Z,0.5
2018-05-08T13:28:18.165Z,0.6
2018-05-08T13:30:18.070Z,0.6
2018-05-08T13:32:17.894Z,0.6
2018-05-08T13:34:17.683Z,0.4
2018-05-08T13:36:18.518Z,0.5
2018-05-08T13:38:18.348Z,0.5
2018-05-08T13:40:17.672Z,0.8
2018-05-08T13:42:18.674Z,0.3
2018-05-08T13:44:18.499Z,0.5
2018-05-08T13:46:18.015Z,0.4
2018-05-08T13:48:17.824Z,0.7
2018-05-08T13:50:17.739Z,0.6
2018-05-08T13:52:17.553Z,0.9
2018-05-08T13:54:18.368Z,0.7
2018-05-08T13:56:18.516Z,0.6
2018-05-08T13:58:18.303Z,0.6
2018-05-08T14:00:18.333Z,0.5
2018-05-08T14:02:18.148Z,0.5
2018-05-08T14:04:17.975Z,0.7
2018-05-08T14:06:18.501Z,0.8
2018-05-08T14:08:18.312Z,0.4
2018-05-08T14:10:17.620Z,0.5
2018-05-08T14:12:18.418Z,0.6
2018-05-08T14:14:18.234Z,0.6
2018-05-08T14:16:17.751Z,0.6
2018-05-08T14:18:17.629Z,0.5
2018-05-08T14:20:18.466Z,0.5
2018-05-08T14:22:18.284Z,0.3
2018-05-08T14:24:18.079Z,0.2
2018-05-08T14:26:17.667Z,0.4
2018-05-08T14:28:18.479Z,0.4
2018-05-08T14:30:18.300Z,0.6
2018-05-08T14:32:18.108Z,0.4
2018-05-08T14:34:17.919Z,0.5
2018-05-08T14:36:18.496Z,0.4
2018-05-08T14:38:18.315Z,0.5
2018-05-08T14:40:17.616Z,0.4
2018-05-08T14:42:18.468Z,0.6
2018-05-08T14:44:18.263Z,0.6
2018-05-08T14:46:18.298Z,0.5
2018-05-08T14:48:18.129Z,0.4
2018-05-08T14:50:17.969Z,0.4
2018-05-08T14:52:17.811Z,0.3
2018-05-08T14:54:17.620Z,0.3
2018-05-08T14:56:17.718Z,0.6
2018-05-08T14:58:17.542Z,0.6
2018-05-08T15:00:18.379Z,0.6
2018-05-08T15:02:18.220Z,0.6
2018-05-08T15:04:18.146Z,0.3
2018-05-08T15:06:17.761Z,0.5
2018-05-08T15:08:17.599Z,0.8
2018-05-08T15:10:17.949Z,0.7
2018-05-08T15:12:17.752Z,0.7
2018-05-08T15:14:17.580Z,0.5
2018-05-08T15:16:17.705Z,0.8
2018-05-08T15:18:17.656Z,0.4
2018-05-08T15:20:18.487Z,0.5
2018-05-08T15:22:18.310Z,0.7
2018-05-08T15:24:18.140Z,0.5
2018-05-08T15:26:17.785Z,0.6
2018-05-08T15:28:17.630Z,0.4
2018-05-08T15:30:18.483Z,0.6
2018-05-08T15:32:18.323Z,0.6
2018-05-08T15:34:18.157Z,0.4
2018-05-08T15:36:17.783Z,0.4
2018-05-08T15:38:17.613Z,0.3
2018-05-08T15:40:17.889Z,0.8
2018-05-08T15:42:17.725Z,0.3
2018-05-08T15:44:17.597Z,0.5
2018-05-08T15:46:18.167Z,0.4
2018-05-08T15:48:18.001Z,0.7
2018-05-08T15:50:17.840Z,0.4
2018-05-08T15:52:17.656Z,0.3
2018-05-08T15:54:18.494Z,0.5
2018-05-08T15:56:18.029Z,1.1
2018-05-08T15:58:17.858Z,1.3
2018-05-08T16:00:17.682Z,0.6
2018-05-08T16:02:18.568Z,0.5
2018-05-08T16:04:17.643Z,0.4
2018-05-08T16:06:17.746Z,1
2018-05-08T16:08:17.589Z,0.6
2018-05-08T16:10:17.897Z,0.5
2018-05-08T16:12:17.721Z,1.1
2018-05-08T16:14:18.558Z,0.2
2018-05-08T16:16:17.674Z,0.7
2018-05-08T16:18:17.577Z,0.4
2018-05-08T16:20:18.460Z,0.6
2018-05-08T16:22:18.306Z,0.4
2018-05-08T16:24:18.146Z,1.3
2018-05-08T16:26:18.190Z,0.8
2018-05-08T16:28:18.029Z,0.5
2018-05-08T16:30:18.008Z,0.8
2018-05-08T16:32:18.021Z,0.5
2018-05-08T16:34:17.876Z,1.1
2018-05-08T16:36:18.441Z,0.9
2018-05-08T16:38:18.273Z,1.1
2018-05-08T16:40:18.549Z,1.2
2018-05-08T16:42:18.378Z,0.6
2018-05-08T16:44:18.191Z,0.6
2018-05-08T16:46:17.734Z,0.7
2018-05-08T16:48:17.574Z,0.6
2018-05-08T16:50:18.448Z,0.5
2018-05-08T16:52:18.256Z,0.5
2018-05-08T16:54:18.065Z,0.7
2018-05-08T16:56:17.593Z,0.9
2018-05-08T16:58:18.417Z,0.8
2018-05-08T17:00:18.261Z,1.1
2018-05-08T17:02:18.071Z,0.6
2018-05-08T17:04:17.884Z,0.6
2018-05-08T17:06:18.442Z,0.7
2018-05-08T17:08:18.270Z,0.5
2018-05-08T17:10:18.730Z,0.6
2018-05-08T17:12:17.536Z,0.6
2018-05-08T17:14:18.334Z,1.1
2018-05-08T17:16:17.943Z,1.1
2018-05-08T17:18:17.821Z,0.8
2018-05-08T17:20:17.653Z,1.2
2018-05-08T17:22:18.460Z,1.2
2018-05-08T17:24:18.278Z,1.2
2018-05-08T17:26:17.799Z,0.6
2018-05-08T17:28:17.599Z,1
2018-05-08T17:30:18.422Z,1.1
2018-05-08T17:32:18.303Z,0.7
2018-05-08T17:34:18.116Z,0.6
2018-05-08T17:36:18.193Z,0.5
2018-05-08T17:38:17.997Z,0.5
2018-05-08T17:40:18.227Z,1
2018-05-08T17:42:18.072Z,0.8
2018-05-08T17:44:17.891Z,0.5
2018-05-08T17:46:18.507Z,0.9
2018-05-08T17:48:18.311Z,0.9
2018-05-08T17:50:18.106Z,0.8
2018-05-08T17:52:17.909Z,1
2018-05-08T17:54:17.718Z,0.7
2018-05-08T17:56:18.276Z,1.3
2018-05-08T17:58:18.081Z,0.6
2018-05-08T18:00:17.881Z,0.8
2018-05-08T18:02:17.707Z,0.9
2018-05-08T18:04:18.595Z,0.9
2018-05-08T18:06:17.540Z,0.7
2018-05-08T18:08:18.341Z,0.8
2018-05-08T18:10:17.592Z,0.8
2018-05-08T18:12:18.412Z,0.8
2018-05-08T18:14:18.193Z,1
2018-05-08T18:16:18.347Z,1.6
2018-05-08T18:18:18.212Z,0.8
2018-05-08T18:20:18.037Z,0.6
2018-05-08T18:22:17.862Z,0.6
2018-05-08T18:24:17.673Z,1.1
2018-05-08T18:26:17.697Z,0.6
2018-05-08T18:28:18.507Z,0.5
2018-05-08T18:30:18.312Z,1.1
2018-05-08T18:32:18.095Z,1
2018-05-08T18:34:17.883Z,0.8
2018-05-08T18:36:17.522Z,1.1
2018-05-08T18:38:18.321Z,0.7
2018-05-08T18:40:17.656Z,0.7
2018-05-08T18:42:18.473Z,0.7
2018-05-08T18:44:18.269Z,1.1
2018-05-08T18:46:17.803Z,1.2
2018-05-08T18:48:17.616Z,0.9
2018-05-08T18:50:18.432Z,1
2018-05-08T18:52:18.210Z,0.7
2018-05-08T18:54:18.017Z,0.9
2018-05-08T18:56:17.550Z,1.3
2018-05-08T18:58:18.357Z,1.2
2018-05-08T19:00:18.177Z,0.9
2018-05-08T19:02:17.963Z,1.1
2018-05-08T19:04:17.744Z,0.6
2018-05-08T19:06:18.287Z,1
2018-05-08T19:08:18.087Z,0.6
2018-05-08T19:10:18.328Z,1.1
2018-05-08T19:12:18.118Z,0.8
2018-05-08T19:14:17.948Z,1.3
2018-05-08T19:16:18.476Z,0.8
2018-05-08T19:18:18.366Z,1.1
2018-05-08T19:20:18.172Z,1.2
2018-05-08T19:22:17.986Z,0.9
2018-05-08T19:24:17.778Z,0.7
2018-05-08T19:26:17.847Z,1.1
2018-05-08T19:28:17.644Z,0.9
2018-05-08T19:30:18.509Z,1.5
2018-05-08T19:32:18.304Z,1.2
2018-05-08T19:34:18.109Z,0.9
2018-05-08T19:36:17.623Z,1.1
2018-05-08T19:38:18.418Z,1.7
2018-05-08T19:40:17.640Z,2.9
2018-05-08T19:42:18.427Z,2.3
2018-05-08T19:44:18.223Z,1.7
2018-05-08T19:46:17.911Z,1.7
2018-05-08T19:48:17.674Z,1.4
2018-05-08T19:50:18.493Z,1.6
2018-05-08T19:52:18.288Z,1.1
2018-05-08T19:54:18.070Z,1.4
2018-05-08T19:56:17.593Z,1.5
2018-05-08T19:58:18.364Z,1.1
2018-05-08T20:00:18.152Z,1.2
2018-05-08T20:02:17.969Z,1.4
2018-05-08T20:04:17.746Z,1
2018-05-08T20:06:18.248Z,1.2
2018-05-08T20:08:18.012Z,1
2018-05-08T20:10:18.268Z,1.1
2018-05-08T20:12:18.064Z,1.3
2018-05-08T20:14:17.835Z,1.7
2018-05-08T20:16:18.343Z,0.9
2018-05-08T20:18:18.205Z,1.2
2018-05-08T20:20:17.985Z,1.2
2018-05-08T20:22:17.771Z,1.1
2018-05-08T20:24:17.550Z,1
2018-05-08T20:26:17.567Z,1.6
2018-05-08T20:28:18.350Z,1
2018-05-08T20:30:18.135Z,1.5
2018-05-08T20:32:17.924Z,1.1
2018-05-08T20:34:17.716Z,1.6
2018-05-08T20:36:18.226Z,1.3
2018-05-08T20:38:18.056Z,1.1
2018-05-08T20:40:18.330Z,1.1
2018-05-08T20:42:18.104Z,0.7
2018-05-08T20:44:17.877Z,1.2
2018-05-08T20:46:17.954Z,1.2
2018-05-08T20:48:17.744Z,0.9
2018-05-08T20:50:17.598Z,1.1
2018-05-08T20:52:17.574Z,0.9
2018-05-08T20:54:18.340Z,1.1
2018-05-08T20:56:17.825Z,1
2018-05-08T20:58:17.623Z,1.2
2018-05-08T21:00:18.603Z,1.3
2018-05-08T21:02:18.417Z,1.1
2018-05-08T21:04:18.190Z,1.2
2018-05-08T21:06:17.724Z,1.2
2018-05-08T21:08:18.500Z,1.1
2018-05-08T21:10:17.732Z,0.9
2018-05-08T21:12:18.495Z,1.5
2018-05-08T21:14:18.281Z,1.4
2018-05-08T21:16:17.795Z,0.8
2018-05-08T21:18:17.699Z,0.9
2018-05-08T21:20:18.481Z,1.3
2018-05-08T21:22:18.283Z,0.8
2018-05-08T21:24:18.086Z,1
2018-05-08T21:26:17.665Z,1.3
2018-05-08T21:28:18.456Z,0.9
2018-05-08T21:30:18.223Z,1.6
2018-05-08T21:32:17.999Z,1.3
2018-05-08T21:34:17.797Z,1.2
2018-05-08T21:36:19.338Z,1.8
2018-05-08T21:38:18.123Z,0.9
2018-05-08T21:40:18.379Z,1.3
2018-05-08T21:42:18.160Z,1.4
2018-05-08T21:44:17.938Z,1.3
2018-05-08T21:46:17.975Z,1.3
2018-05-08T21:48:17.760Z,1.6
2018-05-08T21:50:18.538Z,1.3
2018-05-08T21:52:18.312Z,1.2
2018-05-08T21:54:18.123Z,0.9
2018-05-08T21:56:18.712Z,1
2018-05-08T21:58:18.520Z,1.4
2018-05-08T22:00:19.318Z,1.3
2018-05-08T22:02:18.100Z,1.5
2018-05-08T22:04:17.894Z,1.3
2018-05-08T22:06:18.404Z,0.9
2018-05-08T22:08:19.173Z,1.1
2018-05-08T22:10:18.401Z,1.1
2018-05-08T22:12:18.153Z,1
2018-05-08T22:14:17.901Z,0.9
2018-05-08T22:16:18.917Z,1.5
2018-05-08T22:18:18.780Z,1
2018-05-08T22:20:17.607Z,0.8
2018-05-08T22:22:18.537Z,1.3
2018-05-08T22:24:18.325Z,1
2018-05-08T22:26:17.992Z,1.7
2018-05-08T22:28:18.790Z,1.4
2018-05-08T22:30:18.586Z,2
2018-05-08T22:32:18.359Z,1.6
2018-05-08T22:34:19.133Z,2.4
2018-05-08T22:36:18.649Z,2.7
2018-05-08T22:38:19.442Z,2.6
2018-05-08T22:40:18.719Z,3.2
2018-05-08T22:42:18.492Z,3.2
2018-05-08T22:44:18.246Z,2.9
2018-05-08T22:46:17.803Z,2.3
2018-05-08T22:48:17.618Z,2.3
2018-05-08T22:50:18.409Z,2.5
2018-05-08T22:52:19.191Z,2
2018-05-08T22:54:18.971Z,2.4
2018-05-08T22:56:19.019Z,2.3
2018-05-08T22:58:18.814Z,2.4
2018-05-08T23:00:17.614Z,2.1
2018-05-08T23:02:19.376Z,2
2018-05-08T23:04:19.125Z,1.6
2018-05-08T23:06:17.585Z,1.9
2018-05-08T23:08:19.387Z,1.6
2018-05-08T23:10:18.597Z,1.8
2018-05-08T23:12:19.381Z,1.2
2018-05-08T23:14:19.156Z,1.6
2018-05-08T23:16:18.865Z,2.1
2018-05-08T23:18:18.689Z,1.1
2018-05-08T23:20:19.497Z,1.5
2018-05-08T23:22:19.257Z,2.2
2018-05-08T23:24:18.034Z,1.6
2018-05-08T23:26:19.075Z,1.8
2018-05-08T23:28:18.844Z,1.4
2018-05-08T23:30:18.659Z,1.7
2018-05-08T23:32:19.418Z,1.4
2018-05-08T23:34:19.188Z,1.9
2018-05-08T23:36:19.205Z,2.1
2018-05-08T23:38:18.975Z,1.5
2018-05-08T23:40:19.180Z,1.8
2018-05-08T23:42:18.942Z,1.3
2018-05-08T23:44:18.725Z,1.9
2018-05-08T23:46:18.774Z,0.9
2018-05-08T23:48:18.565Z,1
2018-05-08T23:50:19.355Z,1.5
2018-05-08T23:52:19.149Z,1.2
2018-05-08T23:54:18.940Z,1.8
2018-05-08T23:56:19.455Z,1.3
2018-05-08T23:58:19.230Z,1.1
